Aloha, Louisiana
Current Conditions -  °F | °C
As of 1:53 PM on Thursday 30 Oct 2014 (Local Time) from KAEX Reporting Station
Clear Clear  
Wind Chill: 72°   Ceiling: Unl
Heat Index: 72°   Visibility: 10mi
Dew Point: 38°   Wind: 3mph
Humidity: 29%   Direction: NA
Pressure: 30.09"   Gusts: NA
Location:  31.503°N, 92.6476°W
Report Text: KAEX 301853Z AUTO VRB03KT 10SM CLR 22/03 A3009 RMK AO2 SLP193 T02220033
Loading
Personal Weather Stations






























Interactive Weather Map
Tropical Storm Tracking
New forecast layout! Learn more

10-Day Weather Forecast

Advertisements
Track Severe Weather on mobile